Time;durP1;ratioP1;P1;durP2;ratioP2;P2;SDS_P1;SDS_P2;PMS_P1;PMS_P2;Temp;Humidity;BMP_temperature;BMP_pressure;BME280_temperature;BME280_humidity;BME280_pressure;Samples;Min_cycle;Max_cycle;Signal;HPM_P1;HPM_P2
2022/07/18 00:02:00;;;;;;;4.00;3.52;;;;;;;9.94;100.00;99807.62;1678740;84;20975;-73
2022/07/18 00:04:27;;;;;;;6.53;4.08;;;;;;;9.94;100.00;99811.11;1646019;86;21713;-74
2022/07/18 00:06:54;;;;;;;4.00;3.70;;;;;;;9.94;100.00;99805.75;1694232;83;20908;-73
2022/07/18 00:09:23;;;;;;;4.50;4.10;;;;;;;9.93;100.00;99810.84;1690810;84;20870;-73
2022/07/18 00:11:52;;;;;;;4.17;3.77;;;;;;;9.94;100.00;99808.97;1684734;83;20927;-74
2022/07/18 00:14:20;;;;;;;5.67;4.17;;;;;;;9.92;100.00;99807.88;1686612;84;20991;-73
2022/07/18 00:16:47;;;;;;;4.25;3.95;;;;;;;9.91;100.00;99810.80;1656484;86;23067;-70
2022/07/18 00:19:14;;;;;;;5.47;4.15;;;;;;;9.86;100.00;99810.98;1655872;85;21521;-72
2022/07/18 00:21:42;;;;;;;4.75;4.42;;;;;;;9.87;100.00;99807.77;1658184;86;20893;-73
2022/07/18 00:24:10;;;;;;;6.58;3.98;;;;;;;9.86;100.00;99810.18;1643948;86;20964;-74
2022/07/18 00:26:37;;;;;;;9.10;4.47;;;;;;;9.83;100.00;99808.80;1662684;84;20920;-74
2022/07/18 00:29:04;;;;;;;4.75;4.35;;;;;;;9.81;100.00;99812.25;1667077;85;21114;-74
2022/07/18 00:31:31;;;;;;;6.65;4.35;;;;;;;9.80;100.00;99816.00;1649248;85;20909;-73
2022/07/18 00:33:58;;;;;;;5.92;4.50;;;;;;;9.77;100.00;99814.30;1691665;84;20892;-74
2022/07/18 00:36:25;;;;;;;7.40;4.03;;;;;;;9.74;100.00;99814.27;1656472;86;21455;-74
2022/07/18 00:38:52;;;;;;;5.42;4.33;;;;;;;9.74;100.00;99810.78;1637266;87;20922;-74
2022/07/18 00:41:19;;;;;;;7.92;4.45;;;;;;;9.77;100.00;99808.95;1653187;85;21188;-74
2022/07/18 00:43:45;;;;;;;4.83;4.42;;;;;;;9.74;100.00;99806.22;1637003;86;21024;-74
2022/07/18 00:46:12;;;;;;;10.10;4.25;;;;;;;9.72;100.00;99807.52;1659192;85;21462;-75
2022/07/18 00:48:40;;;;;;;5.50;4.15;;;;;;;9.72;100.00;99805.64;1668587;84;20963;-74
2022/07/18 00:51:09;;;;;;;4.05;3.75;;;;;;;9.73;100.00;99809.16;1684889;85;20905;-75
2022/07/18 00:53:36;;;;;;;7.28;4.70;;;;;;;9.72;100.00;99811.54;1712872;82;21198;-75
2022/07/18 00:56:03;;;;;;;6.67;4.92;;;;;;;9.72;100.00;99814.22;1716100;83;21471;-75
2022/07/18 00:58:30;;;;;;;5.33;4.50;;;;;;;9.72;100.00;99812.34;1720805;83;20890;-75
2022/07/18 01:03:41;;;;;;;4.92;3.72;;;;;;;9.72;100.00;99813.69;1712246;83;20949;-74
2022/07/18 01:06:08;;;;;;;5.97;4.67;;;;;;;9.69;100.00;99815.52;1693323;83;21729;-74
2022/07/18 01:08:37;;;;;;;6.65;4.22;;;;;;;9.66;100.00;99810.65;1695575;83;21438;-75
2022/07/18 01:11:04;;;;;;;;;;;;;;;9.65;100.00;99809.84;1708172;83;20926;-75
2022/07/18 01:13:31;;;;;;;4.45;4.10;;;;;;;9.65;100.00;99806.33;1707270;83;20202;-75
2022/07/18 01:15:58;;;;;;;10.03;4.60;;;;;;;9.69;100.00;99810.69;1709389;83;21484;-72
2022/07/18 01:18:24;;;;;;;9.00;5.15;;;;;;;9.73;100.00;99815.87;1703628;83;21002;-75
2022/07/18 01:20:51;;;;;;;9.35;4.87;;;;;;;9.76;100.00;99810.02;1695373;83;20936;-74
2022/07/18 01:23:18;;;;;;;4.55;4.15;;;;;;;9.77;100.00;99821.81;1671650;85;21578;-74
2022/07/18 01:25:45;;;;;;;6.00;4.62;;;;;;;9.81;100.00;99814.92;1699630;83;20916;-74
2022/07/18 01:28:11;;;;;;;9.10;4.67;;;;;;;9.82;100.00;99818.41;1701743;83;20948;-75
2022/07/18 01:30:38;;;;;;;4.87;4.47;;;;;;;9.82;100.00;99819.25;1695385;83;21174;-73
2022/07/18 01:33:05;;;;;;;6.03;4.25;;;;;;;9.83;100.00;99821.40;1708989;83;20918;-73
2022/07/18 01:35:32;;;;;;;6.25;4.67;;;;;;;9.82;100.00;99825.11;1712934;83;20977;-73
2022/07/18 01:38:00;;;;;;;12.82;4.37;;;;;;;9.80;100.00;99825.87;1698355;83;20955;-73
2022/07/18 01:40:27;;;;;;;4.20;3.80;;;;;;;9.77;100.00;99821.02;1708956;83;20953;-73
2022/07/18 01:42:54;;;;;;;4.33;3.92;;;;;;;9.72;100.00;99828.97;1712559;83;21195;-73
2022/07/18 01:45:21;;;;;;;7.53;4.55;;;;;;;9.74;100.00;99830.88;1696182;83;20927;-73
2022/07/18 01:47:48;;;;;;;5.35;4.67;;;;;;;9.72;100.00;99828.97;1695452;83;20948;-74
2022/07/18 01:50:16;;;;;;;6.00;4.03;;;;;;;9.69;100.00;99824.09;1700749;83;20860;-73
2022/07/18 01:52:43;;;;;;;9.18;4.10;;;;;;;9.66;100.00;99820.03;1687717;83;20904;-73
2022/07/18 01:55:10;;;;;;;5.95;4.67;;;;;;;9.66;100.00;99825.39;1686686;83;21092;-73
2022/07/18 01:57:36;;;;;;;7.58;4.50;;;;;;;9.66;100.00;99833.43;1693334;83;21410;-74
2022/07/18 02:00:08;;;;;;;11.08;4.45;;;;;;;9.64;100.00;99825.62;1687422;83;20912;-73
2022/07/18 02:02:36;;;;;;;6.67;4.28;;;;;;;9.64;100.00;99829.64;1691503;83;20964;-73
2022/07/18 02:05:05;;;;;;;4.20;3.75;;;;;;;9.64;100.00;99824.81;1691057;84;20972;-72
2022/07/18 02:07:34;;;;;;;4.17;3.87;;;;;;;9.61;100.00;99827.45;1683150;84;21200;-73
2022/07/18 02:10:02;;;;;;;6.53;4.70;;;;;;;9.58;100.00;99835.17;1679126;84;20900;-73
2022/07/18 02:12:29;;;;;;;6.78;4.53;;;;;;;9.55;100.00;99828.39;1697398;82;28517;-73
2022/07/18 02:14:57;;;;;;;6.33;4.67;;;;;;;9.54;100.00;99835.35;1697031;84;20918;-72
2022/07/18 02:17:24;;;;;;;13.30;4.58;;;;;;;9.53;100.00;99829.69;1685890;84;20920;-73
2022/07/18 02:19:51;;;;;;;9.15;4.58;;;;;;;9.56;100.00;99838.08;1666911;84;21049;-72
2022/07/18 02:22:18;;;;;;;7.05;4.05;;;;;;;9.53;100.00;99835.88;1672777;85;20941;-73
2022/07/18 02:24:44;;;;;;;5.22;4.72;;;;;;;9.51;100.00;99837.98;1628937;88;21508;-72
2022/07/18 02:27:11;;;;;;;7.92;4.55;;;;;;;9.52;100.00;99838.80;1680569;85;20916;-73
2022/07/18 02:29:38;;;;;;;6.35;4.50;;;;;;;9.55;100.00;99843.13;1664157;84;21050;-73
2022/07/18 02:32:06;;;;;;;4.65;4.25;;;;;;;9.60;100.00;99844.59;1692159;84;21087;-73
2022/07/18 02:34:34;;;;;;;6.53;4.33;;;;;;;9.64;100.00;99849.73;1692030;84;20895;-73
2022/07/18 02:37:01;;;;;;;4.55;4.17;;;;;;;9.68;100.00;99851.94;1683857;84;20957;-74
2022/07/18 02:39:28;;;;;;;7.15;4.40;;;;;;;9.69;100.00;99849.56;1703075;83;20993;-73
2022/07/18 02:41:55;;;;;;;10.50;4.60;;;;;;;9.68;100.00;99862.16;1710638;83;21508;-73
2022/07/18 02:44:22;;;;;;;17.87;6.45;;;;;;;9.71;100.00;99857.64;1699070;83;21168;-73
2022/07/18 02:46:49;;;;;;;16.73;6.92;;;;;;;9.74;100.00;99855.81;1700229;83;21422;-74
2022/07/18 02:49:28;;;;;;;21.77;9.08;;;;;;;9.79;100.00;99858.58;1688365;83;20947;-74
2022/07/18 02:52:01;;;;;;;19.70;7.37;;;;;;;9.83;100.00;99865.63;1689049;83;20943;-74
2022/07/18 02:54:29;;;;;;;13.35;6.40;;;;;;;9.92;100.00;99867.38;1699863;83;20904;-73
2022/07/18 02:56:56;;;;;;;10.35;6.75;;;;;;;10.00;100.00;99870.48;1690304;83;21300;-73
2022/07/18 02:59:24;;;;;;;11.80;6.12;;;;;;;10.08;100.00;99868.73;1696689;83;20895;-75
2022/07/18 03:01:51;;;;;;;10.85;5.20;;;;;;;10.19;100.00;99862.20;1651274;85;20973;-75
2022/07/18 03:04:18;;;;;;;12.30;5.28;;;;;;;10.28;100.00;99866.14;1655512;86;21458;-75
2022/07/18 03:06:46;;;;;;;5.95;3.92;;;;;;;10.38;100.00;99864.95;1675724;85;21410;-75
2022/07/18 03:09:13;;;;;;;5.55;4.00;;;;;;;10.48;100.00;99866.48;1704660;80;21123;-73
2022/07/18 03:13:55;;;;;;;9.18;5.03;;;;;;;10.73;100.00;99862.54;1884946;75;21893;-76
2022/07/18 03:16:22;;;;;;;8.95;4.87;;;;;;;10.82;100.00;99866.94;1860147;77;21074;-75
2022/07/18 03:18:49;;;;;;;8.63;4.60;;;;;;;10.94;100.00;99863.62;1860261;77;21268;-74
2022/07/18 03:21:16;;;;;;;10.38;5.08;;;;;;;11.06;100.00;99870.22;1859873;77;20979;-74
2022/07/18 03:23:43;;;;;;;6.80;4.05;;;;;;;11.21;100.00;99869.59;1859960;77;20959;-75
2022/07/18 03:26:10;;;;;;;10.93;3.80;;;;;;;11.35;100.00;99876.22;1873637;76;21489;-75
2022/07/18 03:28:38;;;;;;;6.87;3.80;;;;;;;11.46;100.00;99881.98;1874416;76;21033;-76
2022/07/18 03:31:06;;;;;;;9.35;4.37;;;;;;;11.58;100.00;99878.63;1843118;76;21270;-74
2022/07/18 03:33:33;;;;;;;8.55;4.53;;;;;;;11.73;100.00;99879.31;1874261;76;20994;-75
2022/07/18 03:36:00;;;;;;;6.08;4.28;;;;;;;11.90;100.00;99885.17;1874618;76;20971;-74
2022/07/18 03:38:27;;;;;;;11.95;5.62;;;;;;;11.98;100.00;99896.83;1874179;76;20962;-74
2022/07/18 03:40:53;;;;;;;13.95;6.90;;;;;;;12.15;100.00;99900.22;1803566;79;20947;-74
2022/07/18 03:43:21;;;;;;;16.30;6.37;;;;;;;12.27;100.00;99903.26;1819549;77;21131;-74
2022/07/18 03:45:47;;;;;;;8.45;4.62;;;;;;;12.35;100.00;99904.96;1772131;79;20863;-74
2022/07/18 03:48:14;;;;;;;16.23;5.75;;;;;;;12.52;100.00;99910.21;1826932;77;20853;-73
2022/07/18 03:50:41;;;;;;;5.85;3.77;;;;;;;12.64;100.00;99905.97;1850443;77;21026;-74
2022/07/18 03:53:08;;;;;;;8.03;3.75;;;;;;;12.73;100.00;99909.80;1803324;79;20919;-76
2022/07/18 03:55:37;;;;;;;6.08;3.55;;;;;;;12.85;100.00;99910.97;1850773;77;21299;-75
2022/07/18 03:58:03;;;;;;;16.93;7.20;;;;;;;12.90;100.00;99911.00;1803551;79;21481;-74
2022/07/18 04:00:30;;;;;;;7.67;4.37;;;;;;;13.04;100.00;99920.25;1850524;77;20865;-74
2022/07/18 04:02:57;;;;;;;13.45;5.37;;;;;;;13.19;100.00;99916.82;1804306;79;20935;-75
2022/07/18 04:05:24;;;;;;;9.10;4.72;;;;;;;13.37;100.00;99919.62;1795143;78;20931;-75
2022/07/18 04:07:52;;;;;;;9.30;3.70;;;;;;;13.52;100.00;99918.87;1790941;80;21151;-75
2022/07/18 04:10:19;;;;;;;4.75;3.08;;;;;;;13.65;100.00;99920.28;1790382;80;20856;-75
2022/07/18 04:12:52;;;;;;;5.67;3.00;;;;;;;13.66;100.00;99923.24;1819813;77;21470;-73
2022/07/18 04:15:20;;;;;;;9.18;3.22;;;;;;;13.68;100.00;99916.50;1819254;78;21430;-76
2022/07/18 04:17:48;;;;;;;9.15;3.75;;;;;;;13.89;100.00;99921.94;1819323;78;20853;-71
2022/07/18 04:20:16;;;;;;;9.30;3.77;;;;;;;13.93;100.00;99923.04;1819326;78;21661;-76
2022/07/18 04:22:53;;;;;;;4.85;3.15;;;;;;;14.12;100.00;99924.16;1819512;78;20905;-75
2022/07/18 04:25:22;;;;;;;3.27;2.72;;;;;;;14.29;100.00;99929.85;1818864;79;21518;-74
2022/07/18 04:27:49;;;;;;;4.17;3.12;;;;;;;14.50;100.00;99929.30;1818945;77;20940;-71
2022/07/18 04:30:19;;;;;;;;;;;;;;;14.57;100.00;99925.82;1839588;78;20968;-72
2022/07/18 04:32:46;;;;;;;7.08;2.52;;;;;;;14.58;100.00;99930.16;1841162;78;20664;-74
2022/07/18 04:35:13;;;;;;;4.85;2.60;;;;;;;14.85;100.00;99929.05;1841286;78;21022;-74
2022/07/18 04:37:41;;;;;;;5.65;2.58;;;;;;;14.96;100.00;99934.15;1772110;79;21612;-74
2022/07/18 04:40:09;;;;;;;5.28;2.60;;;;;;;15.19;100.00;99926.55;1821902;77;20960;-71
2022/07/18 04:42:36;;;;;;;6.17;2.60;;;;;;;15.52;100.00;99932.37;1803037;79;21034;-72
2022/07/18 04:45:05;;;;;;;4.55;2.45;;;;;;;15.52;100.00;99932.37;1842389;77;21347;-74
2022/07/18 04:47:34;;;;;;;6.25;2.30;;;;;;;15.88;100.00;99933.59;1840810;77;21529;-75
2022/07/18 04:50:00;;;;;;;4.30;2.20;;;;;;;16.29;100.00;99944.41;1767830;80;21251;-77
2022/07/18 04:52:29;;;;;;;4.35;2.40;;;;;;;16.68;100.00;99946.27;1798690;79;20971;-75
2022/07/18 04:54:56;;;;;;;3.10;2.02;;;;;;;16.83;100.00;99956.20;1765962;79;21019;-74
2022/07/18 04:57:23;;;;;;;3.40;2.20;;;;;;;16.67;100.00;99956.84;1799140;79;22374;-73
2022/07/18 04:59:49;;;;;;;6.17;2.35;;;;;;;16.74;100.00;99957.88;1798922;79;20905;-72
2022/07/18 05:02:16;;;;;;;4.28;2.05;;;;;;;16.84;100.00;99958.36;1798849;79;21552;-73
2022/07/18 05:04:43;;;;;;;1.80;1.70;;;;;;;17.01;100.00;99960.64;1798834;79;21042;-76
2022/07/18 05:07:11;;;;;;;2.60;1.85;;;;;;;17.09;100.00;99955.38;1799216;79;20978;-71
2022/07/18 05:09:41;;;;;;;2.67;1.82;;;;;;;17.27;100.00;99956.56;1799159;79;21278;-75
2022/07/18 05:12:08;;;;;;;6.83;1.87;;;;;;;17.12;100.00;99949.93;1799129;79;20920;-75
2022/07/18 05:14:36;;;;;;;3.70;2.33;;;;;;;17.43;100.00;99956.39;1799203;79;20993;-70
2022/07/18 05:17:03;;;;;;;;;;;;;;;17.66;100.00;99958.81;1801716;79;21193;-72
2022/07/18 05:19:30;;;;;;;6.10;2.20;;;;;;;17.75;100.00;99960.59;1799124;79;20108;-74
2022/07/18 05:21:57;;;;;;;6.25;2.02;;;;;;;17.73;100.00;99955.19;1767902;79;22794;-73
2022/07/18 05:24:24;;;;;;;7.07;1.73;;;;;;;17.80;100.00;99961.10;1801947;79;20971;-73
2022/07/18 05:26:50;;;;;;;7.95;1.82;;;;;;;17.98;100.00;99965.76;1768823;81;20924;-73
2022/07/18 05:29:17;;;;;;;5.37;2.00;;;;;;;18.11;100.00;99967.48;1801985;79;20975;-69
2022/07/18 05:31:45;;;;;;;7.75;1.85;;;;;;;18.22;100.00;99973.02;1776265;79;20917;-72
2022/07/18 05:34:13;;;;;;;5.45;1.80;;;;;;;18.29;100.00;99969.38;1849756;77;20925;-73
2022/07/18 05:36:40;;;;;;;2.77;1.62;;;;;;;18.51;100.00;99972.04;1786261;79;21384;-72
2022/07/18 05:39:09;;;;;;;4.30;1.67;;;;;;;18.82;100.00;99981.34;1767411;79;20892;-72
2022/07/18 05:41:35;;;;;;;3.77;1.82;;;;;;;18.97;100.00;99981.62;1798790;79;20979;-75
2022/07/18 05:44:03;;;;;;;4.53;1.70;;;;;;;18.96;100.00;99984.63;1798975;79;20963;-73
2022/07/18 05:46:30;;;;;;;4.17;2.08;;;;;;;19.08;100.00;99984.16;1799202;79;21865;-69
2022/07/18 05:48:56;;;;;;;5.95;1.45;;;;;;;19.05;100.00;99980.92;1798868;79;20865;-73
2022/07/18 05:51:24;;;;;;;4.60;2.10;;;;;;;19.27;100.00;99975.36;1796696;79;20948;-69
2022/07/18 05:53:51;;;;;;;4.55;2.20;;;;;;;19.18;100.00;99977.99;1796691;80;21306;-71
2022/07/18 05:56:18;;;;;;;2.92;1.60;;;;;;;19.04;100.00;99983.96;1795043;80;20911;-73
2022/07/18 05:58:44;;;;;;;1.62;1.52;;;;;;;18.93;100.00;99979.80;1794332;80;21199;-75
2022/07/18 06:01:16;;;;;;;8.67;2.67;;;;;;;19.53;100.00;99981.69;1794018;80;21110;-73
2022/07/18 06:03:40;;;;;;;2.67;1.40;;;;;;;19.51;100.00;99981.98;1793432;79;21291;-71
2022/07/18 06:06:09;;;;;;;3.15;1.72;;;;;;;19.54;100.00;99983.29;1795573;79;20911;-71
2022/07/18 06:08:36;;;;;;;2.15;1.50;;;;;;;19.55;100.00;99987.08;1799185;79;20966;-72
2022/07/18 06:11:03;;;;;;;5.47;1.80;;;;;;;19.77;100.00;99986.39;1767751;79;22045;-73
2022/07/18 06:13:31;;;;;;;6.58;2.67;;;;;;;19.66;100.00;99979.50;1795868;79;21518;-76
2022/07/18 06:15:59;;;;;;;6.35;1.80;;;;;;;19.70;100.00;99987.36;1765094;80;20913;-73
2022/07/18 06:18:26;;;;;;;2.00;1.50;;;;;;;19.99;100.00;99988.91;1791076;80;20881;-73
2022/07/18 06:20:53;;;;;;;4.90;1.52;;;;;;;20.21;100.00;99979.97;1791272;80;20992;-72
2022/07/18 06:23:21;;;;;;;4.17;1.37;;;;;;;20.52;100.00;99983.59;1786338;80;21274;-73
2022/07/18 06:25:48;;;;;;;3.12;2.08;;;;;;;20.62;97.62;99982.57;1780954;80;20936;-73
2022/07/18 06:28:15;;;;;;;7.00;1.47;;;;;;;20.82;100.00;99976.36;1791318;80;21471;-73
2022/07/18 06:30:42;;;;;;;3.50;1.45;;;;;;;20.71;96.78;99976.63;1791292;79;21095;-73
2022/07/18 06:33:08;;;;;;;2.30;1.60;;;;;;;20.50;93.58;99978.20;1791130;80;21469;-72
2022/07/18 06:35:50;;;;;;;2.87;1.45;;;;;;;20.66;91.68;99974.03;1790697;79;21236;-74
2022/07/18 06:38:18;;;;;;;4.83;1.10;;;;;;;20.69;76.66;99977.48;1790631;80;25740;-71
2022/07/18 06:40:45;;;;;;;4.67;1.05;;;;;;;20.53;81.13;99974.88;1780556;80;21537;-72
2022/07/18 06:43:13;;;;;;;2.40;1.27;;;;;;;20.35;75.95;99972.56;1780910;80;21529;-71
2022/07/18 06:45:41;;;;;;;4.28;1.02;;;;;;;20.20;74.27;99972.36;1780407;80;21180;-76
2022/07/18 06:48:09;;;;;;;11.47;1.40;;;;;;;20.40;76.99;99969.71;1780698;80;21253;-72
2022/07/18 06:50:36;;;;;;;2.30;1.37;;;;;;;20.68;81.88;99979.98;1759519;80;21071;-70
2022/07/18 06:53:05;;;;;;;3.22;0.90;;;;;;;20.97;75.98;99981.45;1759638;81;21024;-72
2022/07/18 06:55:32;;;;;;;6.37;1.10;;;;;;;20.97;75.60;99977.36;1759843;80;20959;-74
2022/07/18 06:57:58;;;;;;;1.50;0.70;;;;;;;20.93;73.06;99973.06;1759968;81;20921;-71
2022/07/18 07:00:26;;;;;;;2.45;0.90;;;;;;;21.04;75.37;99973.59;1759569;80;21164;-71
2022/07/18 07:02:53;;;;;;;1.45;0.82;;;;;;;20.93;73.70;99976.36;1759556;81;21534;-72
2022/07/18 07:05:21;;;;;;;3.90;1.23;;;;;;;20.72;72.84;99982.31;1759876;81;20977;-72
2022/07/18 07:07:48;;;;;;;2.75;1.00;;;;;;;20.55;80.56;99978.94;1738925;82;20880;-75
2022/07/18 07:10:17;;;;;;;0.95;0.90;;;;;;;20.36;78.12;99983.73;1738634;82;21514;-70
2022/07/18 07:12:49;;;;;;;1.05;0.93;;;;;;;20.28;75.76;99981.16;1738624;80;20925;-73
2022/07/18 07:15:18;;;;;;;2.35;0.90;;;;;;;20.50;76.43;99985.02;1786433;80;21489;-76
2022/07/18 07:17:45;;;;;;;2.33;1.15;;;;;;;21.11;75.63;99975.88;1786572;80;20877;-72
2022/07/18 07:20:12;;;;;;;2.35;0.80;;;;;;;21.32;69.34;99989.80;1786382;80;21593;-70
2022/07/18 07:22:48;;;;;;;2.37;1.00;;;;;;;21.04;67.09;99985.08;1800236;78;20999;-71
2022/07/18 07:25:16;;;;;;;;;;;;;;;20.73;69.70;99977.69;1786330;79;21237;-77
2022/07/18 07:27:44;;;;;;;3.60;1.00;;;;;;;20.92;74.08;99971.47;1813076;79;20102;-71
2022/07/18 07:30:12;;;;;;;2.77;1.12;;;;;;;21.55;66.07;99979.05;1812791;79;20949;-72
2022/07/18 07:32:42;;;;;;;9.73;2.70;;;;;;;21.47;66.70;99978.48;1812786;79;20956;-74
2022/07/18 07:35:12;;;;;;;1.92;1.30;;;;;;;21.63;66.61;99982.93;1812585;78;21672;-73
2022/07/18 07:37:41;;;;;;;3.95;1.30;;;;;;;21.61;68.08;99987.36;1812955;79;21211;-71
2022/07/18 07:40:09;;;;;;;3.90;1.27;;;;;;;21.39;66.11;99977.33;1812178;78;20972;-76
2022/07/18 07:42:36;;;;;;;1.40;0.95;;;;;;;20.92;69.36;99974.73;1812995;79;20940;-73
2022/07/18 07:45:05;;;;;;;1.00;0.90;;;;;;;21.01;67.97;99976.95;1813123;79;20897;-72
2022/07/18 07:47:31;;;;;;;2.75;1.10;;;;;;;21.06;69.73;99974.09;1812926;79;20921;-71
2022/07/18 07:49:58;;;;;;;1.55;0.90;;;;;;;20.81;68.92;99980.22;1812427;79;21230;-72
2022/07/18 07:52:27;;;;;;;3.47;0.85;;;;;;;20.33;71.23;99978.34;1812624;79;20945;-74
2022/07/18 07:54:54;;;;;;;1.60;0.90;;;;;;;20.20;70.41;99976.45;1812567;79;21084;-74
2022/07/18 07:57:22;;;;;;;1.20;0.90;;;;;;;20.53;74.85;99972.16;1812841;79;21055;-73
2022/07/18 07:59:49;;;;;;;7.90;1.72;;;;;;;21.10;66.50;99972.36;1835732;78;20951;-71
2022/07/18 08:02:18;;;;;;;3.02;1.47;;;;;;;20.79;63.79;99975.63;1835671;78;21228;-71
2022/07/18 08:04:45;;;;;;;2.92;0.93;;;;;;;20.58;67.64;99976.15;1835491;78;20956;-74
2022/07/18 08:07:12;;;;;;;2.47;1.15;;;;;;;20.88;68.55;99977.86;1823144;78;20963;-73
2022/07/18 08:09:39;;;;;;;2.22;0.88;;;;;;;21.27;61.20;99980.39;1819353;78;20928;-74
2022/07/18 08:12:07;;;;;;;6.42;1.25;;;;;;;21.27;59.24;99983.11;1818944;79;21432;-71
2022/07/18 08:14:37;;;;;;;1.85;1.10;;;;;;;21.01;60.97;99980.25;1805811;78;21898;-71
2022/07/18 08:17:04;;;;;;;3.12;1.00;;;;;;;21.11;60.59;99980.77;1802151;79;21015;-74
2022/07/18 08:19:31;;;;;;;0.80;0.80;;;;;;;20.83;58.68;99984.81;1802240;79;21003;-70
2022/07/18 08:21:58;;;;;;;4.42;1.65;;;;;;;21.32;60.82;99986.50;1822381;78;21538;-74
2022/07/18 08:24:25;;;;;;;1.52;1.20;;;;;;;21.73;55.31;99978.56;1836112;78;20983;-72
2022/07/18 08:26:53;;;;;;;1.82;1.27;;;;;;;22.16;54.42;99989.30;1835290;78;21350;-74
2022/07/18 08:29:20;;;;;;;3.67;0.90;;;;;;;22.11;55.46;99978.53;1836194;78;20919;-74
2022/07/18 08:31:47;;;;;;;1.70;0.90;;;;;;;21.53;55.98;99980.50;1825241;78;21024;-74
2022/07/18 08:34:13;;;;;;;1.00;0.90;;;;;;;20.90;57.36;99976.42;1802880;79;20955;-73
2022/07/18 08:36:41;;;;;;;;;;;;;;;20.34;62.49;99966.88;1804947;78;21002;-71
2022/07/18 08:39:08;;;;;;;2.17;1.00;;;;;;;20.32;64.49;99970.45;1804562;79;21179;-71
2022/07/18 08:41:35;;;;;;;2.20;0.80;;;;;;;20.56;63.31;99970.20;1774172;79;20914;-73
2022/07/18 08:44:05;;;;;;;2.10;1.15;;;;;;;20.92;61.42;99978.29;1802342;79;21478;-74
2022/07/18 08:46:31;;;;;;;1.82;1.00;;;;;;;20.81;63.29;99974.77;1801866;79;21066;-71
2022/07/18 08:48:59;;;;;;;2.40;1.00;;;;;;;20.71;62.25;99979.35;1769130;79;21003;-74
2022/07/18 08:51:26;;;;;;;3.25;1.10;;;;;;;20.72;65.44;99978.22;1801935;79;21258;-73
2022/07/18 08:53:55;;;;;;;3.27;1.05;;;;;;;21.39;62.03;99979.27;1769005;81;20936;-71
2022/07/18 08:56:22;;;;;;;5.17;0.98;;;;;;;21.61;58.11;99977.00;1801911;79;21579;-71
2022/07/18 08:58:49;;;;;;;1.65;1.05;;;;;;;21.39;57.78;99981.42;1768965;79;21467;-74
2022/07/18 09:01:16;;;;;;;6.00;1.00;;;;;;;21.18;56.25;99975.67;1802614;79;20960;-72
2022/07/18 09:03:43;;;;;;;3.77;0.90;;;;;;;21.15;56.25;99972.78;1768865;81;21133;-73
2022/07/18 09:06:12;;;;;;;5.53;1.17;;;;;;;21.03;56.13;99972.56;1801549;79;21458;-71
2022/07/18 09:08:59;;;;;;;1.62;1.00;;;;;;;20.89;58.30;99968.55;1799163;79;20951;-73
2022/07/18 09:11:26;;;;;;;1.75;0.62;;;;;;;21.47;59.60;99973.02;1798568;78;21008;-71
2022/07/18 09:13:55;;;;;;;2.55;0.90;;;;;;;21.53;53.36;99956.71;1799149;79;21059;-72
2022/07/18 09:16:21;;;;;;;7.75;0.90;;;;;;;22.04;55.29;99967.50;1798915;79;21232;-72
2022/07/18 09:18:49;;;;;;;2.75;0.90;;;;;;;22.19;55.52;99974.98;1800113;79;20943;-69
2022/07/18 09:21:20;;;;;;;3.60;1.00;;;;;;;21.90;55.61;99977.80;1769074;79;21475;-75
2022/07/18 09:23:52;;;;;;;1.07;0.98;;;;;;;21.59;58.81;99973.21;1801399;79;21023;-71
2022/07/18 09:26:41;;;;;;;2.50;0.80;;;;;;;21.44;57.37;99974.22;1768724;81;21525;-74
2022/07/18 09:29:13;;;;;;;1.60;0.80;;;;;;;21.95;55.82;99970.80;1801831;79;21276;-75
2022/07/18 09:31:39;;;;;;;3.80;1.10;;;;;;;22.19;55.23;99973.62;1768879;81;20841;-70
2022/07/18 09:34:06;;;;;;;1.62;0.80;;;;;;;21.75;54.78;99979.59;1799100;79;21038;-74
2022/07/18 09:36:36;;;;;;;3.75;1.00;;;;;;;21.23;56.64;99973.94;1800876;79;20957;-73
2022/07/18 09:39:19;;;;;;;1.45;0.78;;;;;;;20.93;55.46;99964.88;1797668;78;20872;-72
2022/07/18 09:41:46;;;;;;;1.17;1.00;;;;;;;20.61;56.26;99972.80;1840782;78;21215;-72
2022/07/18 09:44:18;;;;;;;4.45;1.40;;;;;;;20.69;56.61;99976.69;1841027;78;20933;-70
2022/07/18 09:47:03;;;;;;;2.62;1.00;;;;;;;21.43;57.22;99976.13;1841520;77;20980;-73
2022/07/18 09:49:31;;;;;;;1.77;1.20;;;;;;;21.96;55.69;99973.77;1813370;78;20932;-73
2022/07/18 09:52:07;;;;;;;2.45;1.32;;;;;;;21.49;56.05;99977.61;1841151;77;20938;-76
2022/07/18 09:54:45;;;;;;;8.80;1.98;;;;;;;20.98;58.68;99974.86;1841069;78;21274;-74
2022/07/18 09:57:26;;;;;;;3.90;1.37;;;;;;;21.14;61.91;99969.25;1821075;77;20989;-74
2022/07/18 09:59:53;;;;;;;3.25;1.10;;;;;;;21.94;59.16;99976.58;1802025;78;21477;-75
2022/07/18 10:02:20;;;;;;;5.47;1.17;;;;;;;22.63;54.34;99984.01;1802522;79;21322;-73
2022/07/18 10:04:53;;;;;;;7.75;4.55;;;;;;;22.66;51.01;99986.09;1802149;79;20868;-72
2022/07/18 10:07:19;;;;;;;6.42;2.77;;;;;;;22.66;48.28;99992.93;1815455;78;22236;-72
2022/07/18 10:09:48;;;;;;;3.10;0.70;;;;;;;22.86;48.91;99981.89;1784709;80;20947;-73
2022/07/18 10:12:15;;;;;;;1.53;0.70;;;;;;;22.80;48.68;99988.65;1819354;78;20979;-77
2022/07/18 10:14:43;;;;;;;3.30;1.00;;;;;;;22.22;49.02;99985.30;1818662;77;21533;-73
2022/07/18 10:17:10;;;;;;;0.93;0.80;;;;;;;21.45;53.18;99982.08;1818494;79;20976;-75
2022/07/18 10:19:37;;;;;;;3.52;1.00;;;;;;;21.20;54.90;99978.90;1818792;79;21161;-73
2022/07/18 10:22:05;;;;;;;8.98;1.20;;;;;;;20.91;57.16;99974.50;1808877;78;21063;-70
2022/07/18 10:24:31;;;;;;;2.00;0.93;;;;;;;20.81;60.62;99975.56;1802283;79;21482;-70
2022/07/18 10:27:19;;;;;;;3.17;1.10;;;;;;;20.71;62.45;99973.90;1802266;78;20936;-72
2022/07/18 10:30:09;;;;;;;1.85;1.10;;;;;;;20.78;61.64;99976.76;1802149;79;20971;-75
2022/07/18 10:32:37;;;;;;;4.20;1.35;;;;;;;21.25;61.87;99970.34;1801948;79;21235;-74
2022/07/18 10:35:08;;;;;;;1.80;0.98;;;;;;;21.95;58.24;99963.14;1802229;79;20868;-74
2022/07/18 10:37:35;;;;;;;2.35;0.98;;;;;;;22.30;52.18;99959.91;1802459;79;21542;-77
2022/07/18 10:40:29;;;;;;;2.43;1.00;;;;;;;22.73;53.01;99960.98;1802244;79;20916;-76
2022/07/18 10:43:32;;;;;;;4.80;0.80;;;;;;;22.73;53.01;99960.98;1802289;79;21680;-69
2022/07/18 10:45:59;;;;;;;4.62;1.77;;;;;;;22.09;51.85;99960.27;1750028;82;21209;-73
2022/07/18 10:48:41;;;;;;;0.98;0.88;;;;;;;21.59;51.87;99960.12;1725192;82;21562;-76
2022/07/18 10:51:12;;;;;;;2.25;0.85;;;;;;;21.90;50.04;99965.50;1747434;80;20842;-73
2022/07/18 10:54:07;;;;;;;0.90;0.70;;;;;;;22.40;49.24;99969.15;1744507;82;21696;-72
2022/07/18 10:56:42;;;;;;;1.20;0.98;;;;;;;22.85;46.79;99955.06;1744651;82;21063;-73
2022/07/18 10:59:18;;;;;;;1.87;1.10;;;;;;;22.78;47.90;99953.39;1744989;80;21814;-74
2022/07/18 11:01:57;;;;;;;0.88;0.72;;;;;;;22.77;47.30;99949.63;1744532;80;21001;-74
2022/07/18 11:04:36;;;;;;;3.10;0.60;;;;;;;23.08;46.45;99960.36;1744607;82;21656;-74
2022/07/18 11:07:15;;;;;;;4.58;1.02;;;;;;;23.10;44.63;99945.75;1750366;80;21186;-74
2022/07/18 11:09:45;;;;;;;4.12;0.80;;;;;;;23.60;45.69;99946.41;1791056;80;21307;-68
2022/07/18 11:12:27;;;;;;;5.78;1.00;;;;;;;23.52;46.73;99948.65;1790587;78;22783;-72
2022/07/18 11:15:12;;;;;;;2.90;1.27;;;;;;;23.20;49.10;99948.16;1789974;78;21045;-74
2022/07/18 11:18:01;;;;;;;3.65;0.82;;;;;;;23.05;49.83;99948.67;1758808;80;20951;-76
2022/07/18 11:20:37;;;;;;;0.82;0.60;;;;;;;22.30;49.48;99938.04;1787808;76;20967;-74
2022/07/18 11:23:20;;;;;;;2.08;1.02;;;;;;;22.25;49.90;99935.47;1850799;76;20976;-73
2022/07/18 11:26:08;;;;;;;1.17;0.70;;;;;;;22.59;48.52;99942.83;1849805;77;20900;-71
2022/07/18 11:28:41;;;;;;;3.12;0.90;;;;;;;22.89;43.19;99946.45;1820342;77;21568;-75
2022/07/18 11:31:12;;;;;;;1.30;1.02;;;;;;;22.87;42.56;99947.34;1873523;76;20974;-73
2022/07/18 11:33:43;;;;;;;2.37;1.00;;;;;;;23.09;42.60;99941.42;1877136;76;21012;-69
2022/07/18 11:36:15;;;;;;;2.25;0.70;;;;;;;23.29;43.20;99942.05;1805764;79;21338;-76
2022/07/18 11:39:00;;;;;;;5.28;1.00;;;;;;;23.23;43.76;99939.84;1849872;76;21237;-74
2022/07/18 11:41:27;;;;;;;1.65;0.95;;;;;;;22.52;46.56;99943.89;1849264;76;21028;-75
2022/07/18 11:43:56;;;;;;;3.93;1.10;;;;;;;21.97;46.46;99935.73;1850176;77;20977;-71
2022/07/18 11:46:26;;;;;;;0.88;0.80;;;;;;;21.79;46.73;99919.89;1849044;77;20993;-74